Mirzo Hasanov

Olheiro-Chefe - Navbahor
29 Out 2028
Domingo
Processo

Personalidade

Adaptabilidade (7) Ambição (8) Controvérsia (1) Lealdade (16) Pressão (7) Profissionalismo (13) Espírito Esportivo (20) Temperamento (1)

Perfil

Estilo de Treinamento Democrático
Licença Nacional B
Determinação 7
Gestão de Pessoas 3
Motivação 7
Disciplina 7
Satisfação no Trabalho
100%
Fadiga
0%
Função Olheiro-Chefe
Salário 18.6K p/s
Contrato 14.03.2029

Desempenho

Comportamento Bom
Eficácia do Treinamento
31%
Desenvolvimento do Jogador
50%
Prevenção de Lesões
20%
Implementação Tática
35%

Eventos Recentes

Participou de uma reunião de recrutamento 7d atrás
Participou de uma reunião de recrutamento 14d atrás
Participou de uma reunião de recrutamento 21d atrás
Participou de uma reunião de recrutamento 28d atrás
Participou de uma reunião de recrutamento 35d atrás
Participou de uma reunião de recrutamento 42d atrás
Participou de uma reunião de recrutamento 49d atrás
Participou de uma reunião de recrutamento 56d atrás

Monitorando agora

164
Jogador Clube Status Habilidade Confiança Observado Última observação Último voto
Evgeny Voronin Volga Ativo 106 / 103 40% 4 30.05.2028 -
Vladislav Sarveli Nizhniy Novgorod Ativo 108 / 102 40% 1 30.05.2028 -
Matty Stevens AFC Wimbledon Ativo 127 / 111 40% 5 29.05.2028 -
Harry Cornick AFC Wimbledon Ativo 109 / 98 40% 3 29.05.2028 -
Danny Butterworth Accrington Stanley Ativo 83 / 101 40% 1 28.05.2028 -
Said Aliev Rotor Ativo 97 / 108 40% 1 28.05.2028 -
Giuseppe Panico Foggia Ativo 118 / 126 40% 2 27.05.2028 -
Timur Suleimanov Nizhniy Novgorod Ativo 132 / 132 40% 2 27.05.2028 -
Alexandr Yushin Torpedo Moscow Ativo 118 / 109 40% 7 26.05.2028 -
Danil Akhatov Ufa Ativo 96 / 106 40% 1 26.05.2028 -
John Kelly Fleetwood Town Ativo 83 / 91 40% 2 24.05.2028 -
Millar Matthews-Lewis Tranmere Rovers Ativo 114 / 101 40% 3 23.05.2028 -
Alan Cisnero Exeter City Ativo 104 / 108 40% 1 23.05.2028 -
Sergey Gaiduk Salyut Ativo 70 / 74 40% 1 22.05.2028 -
Jacobo Alcalde SKA Khabarovsk Ativo 93 / 93 40% 1 22.05.2028 -
Merabi Uridia Fakel Ativo 87 / 106 40% 5 21.05.2028 -
Gevork Sarkisyan Saturn Ativo 84 / 79 40% 1 21.05.2028 -
Migran Ageyan Ufa Ativo 114 / 110 40% 2 19.05.2028 -
Facundo Lescano Salernitana Ativo 133 / 104 40% 1 19.05.2028 -
Vladislav Yakovlev Volga Ativo 83 / 82 40% 3 18.05.2028 -
François Kamano Sochi Ativo 111 / 120 40% 4 17.05.2028 -
Domi Berlanga Cavese Ativo 112 / 102 40% 1 17.05.2028 -
Vyacheslav Grulev Nizhniy Novgorod Ativo 103 / 124 40% 5 14.05.2028 -
Amur Kalmykov Spartak Kostroma Ativo 115 / 91 40% 4 11.05.2028 -
Nikolay Ischenko Chaika Ativo 103 / 89 40% 3 11.05.2028 -
Thomas Henry Reggiana Ativo 103 / 120 40% 1 08.05.2028 -
Vladimir Khubulov Dinamo Makhachkala Ativo 122 / 112 40% 1 05.05.2028 -
Jacopo Manconi Casertana Ativo 118 / 108 40% 1 05.05.2028 -
Nikita Kireev Dinamo Vologda Ativo 70 / 91 40% 2 04.05.2028 -
Louis Flower Crawley Town Ativo 96 / 85 40% 1 04.05.2028 -
Kirill Cheburakov Rostov Ativo 78 / 88 40% 2 01.05.2028 -
Francesco Galuppini Ascoli Ativo 118 / 102 40% 1 01.05.2028 -
Axel Gnapi Dable Fakel Ativo 92 / 97 40% 3 30.04.2028 -
Marcus Dinanga Bromley Ativo 106 / 93 40% 1 30.04.2028 -
Federico Di Francesco Catanzaro Ativo 126 / 125 40% 1 29.04.2028 -
Ismail Achik Salernitana Ativo 116 / 110 40% 2 27.04.2028 -
Georgy Gongadze Ufa Ativo 97 / 98 40% 4 21.04.2028 -
Vladimir Iljin Sochi Ativo 102 / 112 40% 2 18.04.2028 -
Gilson Benchimol Baltika Ativo 129 / 122 40% 1 18.04.2028 -
Mattia Iori Lumezzane Ativo 108 / 100 40% 1 17.04.2028 -
Ilja Rubtsov Chaika Ativo 90 / 93 40% 5 16.04.2028 -
David Davidyan Rotor Ativo 93 / 98 40% 2 16.04.2028 -
Magomed Nasibov Pobeda Ativo 95 / 97 40% 2 15.04.2028 -
Ilja Porokhov Shinnik Ativo 95 / 80 40% 3 14.04.2028 -
Kimarni Smith Newport County Ativo 83 / 100 40% 1 14.04.2028 -
Razhab Magomedov Dinamo Makhachkala Ativo 120 / 108 40% 3 13.04.2028 -
Duncan Watmore Barnsley Ativo 124 / 124 40% 1 11.04.2028 -
Danila Yezhkov Dinamo Vologda Ativo 98 / 83 40% 1 09.04.2028 -
Jamie Reid Stevenage Ativo 107 / 111 40% 1 09.04.2028 -
Mikhail Ignatov Sochi Ativo 118 / 104 40% 3 08.04.2028 -
Alexandr Saplinov Volga Ativo 94 / 113 40% 2 08.04.2028 -
Matija Popović Fakel Ativo 97 / 127 40% 1 06.04.2028 -
Surkhaikhan Abdullaev KAMAZ Ativo 98 / 105 40% 3 03.04.2028 -
Luca Vido Union Brescia Ativo 116 / 124 40% 1 03.04.2028 -
Dmitry Kamenschikov Chernomorets Ativo 94 / 87 40% 3 02.04.2028 -
Miro Arsenal Tula Ativo 102 / 116 40% 1 01.04.2028 -
Miguel Falé Pacos de Ferreira Ativo 93 / 120 40% 1 29.03.2028 -
David Karaev KAMAZ Ativo 113 / 93 40% 1 29.03.2028 -
Soslan Lysenko Spartak Nalchik Ativo 72 / 74 40% 1 15.03.2028 -
Ettore Gliozzi Mantova Ativo 129 / 133 40% 1 09.03.2028 -
Kamran Aliev SKA Khabarovsk Ativo 90 / 97 40% 2 03.03.2028 -
Jorginho Kairat Ativo 109 / 115 40% 1 02.03.2028 -
Everton Moraes Shakhter Ativo 118 / 111 40% 2 01.03.2028 -
Dmitry Kuptsov Spartak Tambov Ativo 72 / 97 40% 3 29.02.2028 -
Alexey Antilevskiy Slavia Mozyr Ativo 99 / 78 40% 5 26.02.2028 -
Paolo Yrizar Chernomorets Ativo 84 / 88 40% 1 25.02.2028 -
Ivan Gulko KAMAZ Ativo 87 / 94 40% 1 25.02.2028 -
Alexandr Lomovitskiy Torpedo-BelAZ Ativo 95 / 121 40% 1 23.02.2028 -
Alexandr Kovalenko Sochi Ativo 134 / 127 40% 1 23.02.2028 -
Vladimir Uljanovskiy Chelyabinsk Ativo 80 / 97 40% 1 22.02.2028 -
Vladislav Tyurin Saturn Ativo 85 / 75 40% 1 21.02.2028 -
Artem Ntumba Rubin Yalta Ativo 79 / 68 40% 1 18.02.2028 -
Ljupce Doriev Sogdiana Ativo 111 / 104 40% 8 17.02.2028 -
Maxim Kutovoy Salyut Ativo 80 / 85 40% 3 17.02.2028 -
Steven Alfred Torpedo-BelAZ Ativo 91 / 107 40% 4 16.02.2028 -
Serder Serderov Dinamo Makhachkala Ativo 86 / 94 40% 1 16.02.2028 -
Alexandre Jesus Orenburg Ativo 120 / 118 40% 1 15.02.2028 -
Denis Rubanov Dinamo Stavropol Ativo 99 / 86 40% 1 15.02.2028 -
Daniel Sosah Aktobe Ativo 110 / 107 40% 1 13.02.2028 -
Roman Yuzepchuk Dinamo Brest Ativo 84 / 110 40% 1 13.02.2028 -
Vladislav Fedosov Slutsk Ativo 80 / 87 40% 1 13.02.2028 -
Oleksiy Shchebetun Qizilqum Ativo 88 / 99 40% 3 12.02.2028 -
Bertrand Fourrier Dinamo Makhachkala Ativo 113 / 116 40% 2 12.02.2028 -
Andrey Solovey Slavia Mozyr Ativo 100 / 92 40% 3 10.02.2028 -
Andrey Mazurin Yenisey Ativo 110 / 95 40% 1 10.02.2028 -
Alan Khabalov Ufa Ativo 100 / 90 40% 1 08.02.2028 -
Đorđe Pantelić Spartak Kostroma Ativo 120 / 91 40% 1 08.02.2028 -
Stefan Lončar Akron Ativo 123 / 125 40% 1 07.02.2028 -
Sergey Pushnyakov Neman Ativo 93 / 106 40% 2 05.02.2028 -
Omar Popov Dinamo St Petersburg Ativo 72 / 67 40% 1 04.02.2028 -
Artem Stepanovich Sevastopol Ativo 82 / 98 40% 1 04.02.2028 -
Denis Pokotylo Chelyabinsk Ativo 95 / 84 40% 1 04.02.2028 -
Moustapha Djimet Dinamo Minsk Ativo 96 / 90 40% 2 02.02.2028 -
Daniil Agureev Amkar Ativo 106 / 78 40% 3 01.02.2028 -
Imeda Ashortia Andijon Ativo 107 / 111 40% 3 31.01.2028 -
Dilshod Abdullayev Pakhtakor Ativo 100 / 103 55% 1 31.01.2028 -
Nikita Trapitsyn Zenit Ativo 69 / 76 40% 1 31.01.2028 -
Andrey Nikitin Neftekhimik Ativo 109 / 96 40% 1 31.01.2028 -
Franco Ayunta Temperley Ativo 108 / 111 40% 2 29.01.2028 -
Danil Lipovoy Ufa Ativo 104 / 104 40% 1 29.01.2028 -
Marc Gual Kairat Ativo 113 / 120 40% 1 27.01.2028 -
Léo Natel Ordabasy Ativo 113 / 111 40% 2 21.01.2028 -
Luca Franco Arsenal Ativo 121 / 111 40% 5 20.01.2028 -
Daniil Motorin Rubin Ativo 90 / 85 40% 1 20.01.2028 -
Anton Betyuzhnov Dinamo Vologda Ativo 70 / 88 40% 2 18.01.2028 -
Uroš Kojić AGMK Ativo 113 / 92 40% 3 13.01.2028 -
Maxim Maximov Slavia Mozyr Ativo 109 / 96 40% 3 13.01.2028 -
Aziz Xolmurodov AGMK Ativo 102 / 115 40% 4 11.01.2028 -
Martin Sekulić Ural Ativo 111 / 106 40% 1 10.01.2028 -
Ilja Safronov Rotor Ativo 103 / 104 40% 2 09.01.2028 -
Zoran Marušić Neftchi Ativo 110 / 99 40% 7 01.01.2028 -
Vlatko Stojanovski Mashal Ativo 92 / 86 40% 1 27.12.2027 -
Alexander Jeremejeff Persija Ativo 105 / 118 40% 2 19.12.2027 -
Juan David Rueda Alianza Petrolera Ativo 97 / 119 40% 3 17.12.2027 -
Gustavo Viera Cerro Largo Ativo 103 / 108 40% 3 14.12.2027 -
Luka Čumić PSM Ativo 94 / 93 40% 4 11.12.2027 -
Amir Nematov Obod Ativo 88 / 88 40% 1 11.12.2027 -
Andrew Jung Persib Ativo 98 / 98 40% 1 05.12.2027 -
Kianz Froese Semen Padang Ativo 96 / 95 40% 1 04.12.2027 -
Vladislav Lozhkin Dinamo Brest Ativo 111 / 109 40% 2 02.12.2027 -
Luka Đorđević Sogdiana Ativo 93 / 90 40% 2 30.11.2027 -
Nuriddin Nuriddinov Mashal Ativo 95 / 81 40% 1 30.11.2027 -
Denis M. Kovalevich Dinamo Brest Ativo 88 / 91 40% 2 29.11.2027 -
Fortune Bassey Bunyodkor Ativo 110 / 100 40% 1 25.11.2027 -
Jort van der Sande Bali United Ativo 117 / 110 40% 1 24.11.2027 -
Adrián Dalmau PSIM Ativo 109 / 107 40% 3 23.11.2027 -
Nermin Haljeta PSIM Ativo 99 / 108 40% 2 20.11.2027 -
Martin Boakye Andijon Ativo 108 / 104 40% 1 20.11.2027 -
Dominik Begić Bukhara Ativo 86 / 107 40% 4 10.11.2027 -
Alexandr Anufriev Vitebsk Ativo 95 / 102 40% 1 08.11.2027 -
Ilja Stefanovich Leningradets Ativo 85 / 86 40% 1 02.11.2027 -
Yusuf Otubanjo Nasaf Ativo 125 / 117 40% 1 02.11.2027 -
Gustavo França Arema Ativo 100 / 94 40% 1 01.11.2027 -
Pavel Savitskiy Neman Ativo 101 / 87 40% 2 28.10.2027 -
Valdeci Arema Ativo 101 / 99 40% 1 25.10.2027 -
Abu Kamara Persis Ativo 88 / 90 40% 1 20.10.2027 -
Ilya Tishurov Osipovichi Ativo 79 / 88 40% 1 19.10.2027 -
Uilliam Barros Persib Ativo 116 / 111 40% 1 15.10.2027 -
Diego Campos Bali United Ativo 103 / 109 40% 1 13.10.2027 -
Nikita Golub Belshina Ativo 92 / 97 40% 1 12.10.2027 -
Igor Monich Naftan Ativo 69 / 78 40% 1 09.10.2027 -
Daouda Natama Minsk Ativo 110 / 105 40% 2 06.10.2027 -
Sudi Abdallah Persijap Ativo 87 / 104 40% 1 03.10.2027 -
Carlos Ramírez Zulia Ativo 99 / 97 40% 1 01.10.2027 -
Kirill Kirilenko Dnepr Mogilev Ativo 73 / 106 40% 1 30.09.2027 -
Toma Tabatadze Kokand 1912 Ativo 101 / 107 40% 2 26.09.2027 -
Koldo Obieta Borneo Ativo 111 / 95 40% 2 25.09.2027 -
Cheickna Samaké Persija Ativo 92 / 108 40% 1 23.09.2027 -
Evgeniy Shevchenko Slavia Mozyr Ativo 88 / 88 40% 1 21.09.2027 -
Dmitriy Vashkevich Dinamo Brest Ativo 98 / 97 40% 1 16.09.2027 -
Matías Samaniego Talleres Ativo 86 / 112 40% 1 16.09.2027 -
John Valladares Santiago Wanderers Ativo 80 / 95 40% 1 14.09.2027 -
Asadbek Jo'raboyev Bukhara Ativo 89 / 103 40% 1 12.09.2027 -
Edmilson Kairat Ativo 114 / 109 40% 1 05.09.2027 -
Jesse Akila Taraz Ativo 103 / 96 40% 1 05.09.2027 -
Karen Vardanyan Dinamo Minsk Ativo 85 / 90 40% 1 30.08.2027 -
Bjørn Johnsen Ordabasy Ativo 100 / 115 40% 2 24.08.2027 -
Grenik Petrosyan Torpedo-BelAZ Ativo 89 / 102 40% 1 22.08.2027 -
Suleiman Abdullahi Atyrau Ativo 90 / 100 40% 1 17.08.2027 -
Sheriddin Boboev PSM Ativo 91 / 105 40% 1 15.08.2027 -
Ersūltan Töreqūl Taraz Ativo 75 / 80 40% 1 11.08.2027 -
Shahzod Rahmatullayev Qizilqum Ativo 83 / 95 51% 1 01.06.2027 -
Muhammadkarim Toirov Andijon Ativo 110 / 93 44% 1 10.08.2026 -
Karlen Hovhannisyan Akron Ativo 93 / 112 40% 1 02.08.2026 -